Sheppard AFB, Texas
Current Conditions -  °F | °C
As of 3:52 PM on Sunday 25 Jan 2015 (Local Time) from KSPS Reporting Station
Clear Clear  
Wind Chill: 63°   Ceiling: Unl
Heat Index: 63°   Visibility: 10mi
Dew Point: 21°   Wind: 30mph
Humidity: 20%   Direction: 330°NNW
Pressure: 30.09"   Gusts: 38mph
Location:  33.94°N, 98.5°W
Report Text: KSPS 252152Z 33026G33KT 10SM CLR 17/M06 A3009 RMK AO2 PK WND 34035/2058 SLP185 T01721061
Loading
Personal Weather Stations






























Interactive Weather Map New forecast layout! Learn more

10-Day Weather Forecast

Advertisements
Track Severe Weather on mobile